createdAt,value
2019-05-11T00:00:38.252Z,77.99
2019-05-11T00:03:06.679Z,77.87
2019-05-11T00:05:35.134Z,77.83
2019-05-11T00:08:03.897Z,78.33
2019-05-11T00:10:32.342Z,78.47
2019-05-11T00:13:00.765Z,78.17
2019-05-11T00:15:29.222Z,78.17
2019-05-11T00:17:57.705Z,77.92
2019-05-11T00:20:26.133Z,77.94
2019-05-11T00:22:54.842Z,78.60
2019-05-11T00:25:23.304Z,78.75
2019-05-11T00:27:51.950Z,77.75
2019-05-11T00:30:20.381Z,77.52
2019-05-11T00:32:48.823Z,77.58
2019-05-11T00:35:17.383Z,77.69
2019-05-11T00:37:46.618Z,78.19
2019-05-11T00:40:15.297Z,78.46
2019-05-11T00:42:44.044Z,78.51
2019-05-11T00:45:12.553Z,78.88
2019-05-11T00:47:40.989Z,78.85
2019-05-11T00:50:09.866Z,78.18
2019-05-11T00:52:38.291Z,78.07
2019-05-11T00:55:07.585Z,77.74
2019-05-11T00:57:36.012Z,77.62
2019-05-11T01:00:06.800Z,77.97
2019-05-11T01:02:35.345Z,77.79
2019-05-11T01:05:04.649Z,77.97
2019-05-11T01:07:33.088Z,78.04
2019-05-11T01:10:01.543Z,77.76
2019-05-11T01:12:29.963Z,77.92
2019-05-11T01:14:58.400Z,78.18
2019-05-11T01:17:27.002Z,78.76
2019-05-11T01:19:55.668Z,78.42
2019-05-11T01:22:24.096Z,78.25
2019-05-11T01:24:52.544Z,78.09
2019-05-11T01:27:21.022Z,77.85
2019-05-11T01:29:49.449Z,77.74
2019-05-11T01:32:17.887Z,78.17
2019-05-11T01:34:46.305Z,78.46
2019-05-11T01:37:14.744Z,78.14
2019-05-11T01:39:43.191Z,77.89
2019-05-11T01:42:12.011Z,77.55
2019-05-11T01:44:40.439Z,77.59
2019-05-11T01:47:08.861Z,77.46
2019-05-11T01:49:37.292Z,77.48
2019-05-11T01:52:05.720Z,77.73
2019-05-11T01:54:34.192Z,78.08
2019-05-11T01:57:02.964Z,78.39
2019-05-11T01:59:31.388Z,78.27
2019-05-11T02:01:59.818Z,78.30
2019-05-11T02:04:28.243Z,78.75
2019-05-11T02:06:56.696Z,79.18
2019-05-11T02:09:25.167Z,79.27
2019-05-11T02:11:53.587Z,79.17
2019-05-11T02:14:22.273Z,78.78
2019-05-11T02:16:50.719Z,78.42
2019-05-11T02:19:19.155Z,78.37
2019-05-11T02:21:47.845Z,78.75
2019-05-11T02:24:16.275Z,78.54
2019-05-11T02:26:44.707Z,78.32
2019-05-11T02:29:13.132Z,78.53
2019-05-11T02:31:41.723Z,78.56
2019-05-11T02:34:10.161Z,78.17
2019-05-11T02:36:38.593Z,77.95
2019-05-11T02:39:07.965Z,78.25
2019-05-11T02:41:37.699Z,78.78
2019-05-11T02:44:06.422Z,78.69
2019-05-11T02:46:34.897Z,78.19
2019-05-11T02:49:03.502Z,79.26
2019-05-11T02:51:32.297Z,79.25
2019-05-11T02:54:02.277Z,78.59
2019-05-11T02:56:30.732Z,78.33
2019-05-11T02:58:59.319Z,78.65
2019-05-11T03:01:27.732Z,78.40
2019-05-11T03:03:56.167Z,78.73
2019-05-11T03:06:24.803Z,78.66
2019-05-11T03:08:53.195Z,78.70
2019-05-11T03:11:21.656Z,78.75
2019-05-11T03:13:50.073Z,78.71
2019-05-11T03:16:18.507Z,78.81
2019-05-11T03:18:46.954Z,78.78
2019-05-11T03:21:15.618Z,78.75
2019-05-11T03:23:44.140Z,78.36
2019-05-11T03:26:12.570Z,77.71
2019-05-11T03:28:41.037Z,78.20
2019-05-11T03:31:09.508Z,78.18
2019-05-11T03:33:38.029Z,78.20
2019-05-11T03:36:07.561Z,78.04
2019-05-11T03:38:35.987Z,78.26
2019-05-11T03:41:04.422Z,78.20
2019-05-11T03:43:32.841Z,78.68
2019-05-11T03:46:01.265Z,79.10
2019-05-11T03:48:29.701Z,78.92
2019-05-11T03:50:58.139Z,78.61
2019-05-11T03:53:26.629Z,78.33
2019-05-11T03:55:55.043Z,78.23
2019-05-11T03:58:26.146Z,78.17
2019-05-11T04:00:53.677Z,78.13
2019-05-11T04:03:22.073Z,78.29
2019-05-11T04:05:50.510Z,78.22
2019-05-11T04:08:18.940Z,78.40
2019-05-11T04:10:47.359Z,78.10
2019-05-11T04:13:15.807Z,78.22
2019-05-11T04:15:44.222Z,78.71
2019-05-11T04:18:12.685Z,78.89
2019-05-11T04:20:42.400Z,78.95
2019-05-11T04:23:10.171Z,79.34
2019-05-11T04:25:38.536Z,77.22
2019-05-11T04:28:07.015Z,79.48
2019-05-11T04:30:35.384Z,79.84
2019-05-11T04:33:03.810Z,80.10
2019-05-11T04:35:32.241Z,80.36
2019-05-11T04:38:00.676Z,80.26
2019-05-11T04:40:29.679Z,80.31
2019-05-11T04:42:58.109Z,80.16
2019-05-11T04:45:26.528Z,80.08
2019-05-11T04:47:54.997Z,80.00
2019-05-11T04:50:23.422Z,79.81
2019-05-11T04:52:52.020Z,79.61
2019-05-11T04:55:20.468Z,79.42
2019-05-11T04:57:48.912Z,79.30
2019-05-11T05:00:17.867Z,79.46
2019-05-11T05:02:47.024Z,79.51
2019-05-11T05:05:15.450Z,79.80
2019-05-11T05:07:49.063Z,80.04
2019-05-11T05:10:19.669Z,80.01
2019-05-11T05:12:50.784Z,80.00
2019-05-11T05:15:14.557Z,79.84
2019-05-11T05:17:43.052Z,79.69
2019-05-11T05:20:12.412Z,79.14
2019-05-11T05:22:40.916Z,78.80
2019-05-11T05:25:09.442Z,78.21
2019-05-11T05:27:38.213Z,77.74
2019-05-11T05:30:07.379Z,77.16
2019-05-11T05:32:36.000Z,76.66
2019-05-11T05:35:06.388Z,76.17
2019-05-11T05:37:34.805Z,75.63
2019-05-11T05:40:03.403Z,75.89
2019-05-11T05:42:31.858Z,75.62
2019-05-11T05:45:00.283Z,75.13
2019-05-11T05:47:28.735Z,75.02
2019-05-11T05:49:59.410Z,74.40
2019-05-11T05:52:27.832Z,74.23
2019-05-11T05:54:56.270Z,74.05
2019-05-11T05:57:24.697Z,74.33
2019-05-11T05:59:53.148Z,73.66
2019-05-11T06:02:21.564Z,73.04
2019-05-11T06:04:49.992Z,72.55
2019-05-11T06:07:23.679Z,72.76
2019-05-11T06:09:52.314Z,72.51
2019-05-11T06:12:23.522Z,72.00
2019-05-11T06:14:52.531Z,71.76
2019-05-11T06:17:21.033Z,71.70
2019-05-11T06:19:49.466Z,70.24
2019-05-11T06:22:17.919Z,69.57
2019-05-11T06:24:46.345Z,70.66
2019-05-11T06:27:14.759Z,68.85
2019-05-11T06:29:43.206Z,70.61
2019-05-11T06:32:11.620Z,69.74
2019-05-11T06:34:40.039Z,69.11
2019-05-11T06:37:08.487Z,68.12
2019-05-11T06:39:36.925Z,67.17
2019-05-11T06:42:07.814Z,66.83
2019-05-11T06:44:35.518Z,67.22
2019-05-11T06:47:04.012Z,65.40
2019-05-11T06:49:32.439Z,64.66
2019-05-11T06:52:01.566Z,64.69
2019-05-11T06:54:29.981Z,63.54
2019-05-11T06:56:58.415Z,64.38
2019-05-11T06:59:27.021Z,63.04
2019-05-11T07:01:55.438Z,62.72
2019-05-11T07:04:23.880Z,62.96
2019-05-11T07:06:52.329Z,60.95
2019-05-11T07:09:20.828Z,61.40
2019-05-11T07:11:49.400Z,59.06
2019-05-11T07:14:21.040Z,59.81
2019-05-11T07:16:48.822Z,58.99
2019-05-11T07:19:17.278Z,59.05
2019-05-11T07:21:45.695Z,57.15
2019-05-11T07:24:14.152Z,57.90
2019-05-11T07:26:42.612Z,57.05
2019-05-11T07:29:11.042Z,56.66
2019-05-11T07:31:39.483Z,56.53
2019-05-11T07:34:08.223Z,53.18
2019-05-11T07:36:38.733Z,53.18
2019-05-11T07:39:08.281Z,54.97
2019-05-11T07:41:38.702Z,54.57
2019-05-11T07:44:07.042Z,52.20
2019-05-11T07:46:37.723Z,51.78
2019-05-11T07:49:08.563Z,51.21
2019-05-11T07:51:38.735Z,50.45
2019-05-11T07:54:08.474Z,50.51
2019-05-11T07:56:38.827Z,49.89
2019-05-11T07:59:08.008Z,49.82
2019-05-11T08:01:38.692Z,50.56
2019-05-11T08:04:07.802Z,50.56
2019-05-11T08:06:38.917Z,50.33
2019-05-11T08:09:08.543Z,47.66
2019-05-11T08:11:38.662Z,47.96
2019-05-11T08:14:07.759Z,50.57
2019-05-11T08:16:39.149Z,49.50
2019-05-11T08:19:10.325Z,50.90
2019-05-11T08:21:38.879Z,49.57
2019-05-11T08:24:09.161Z,51.33
2019-05-11T08:26:38.641Z,49.78
2019-05-11T08:29:08.094Z,50.52
2019-05-11T08:31:38.425Z,50.36
2019-05-11T08:34:08.878Z,49.37
2019-05-11T08:36:37.914Z,47.88
2019-05-11T08:39:08.060Z,46.66
2019-05-11T08:41:38.463Z,48.45
2019-05-11T08:44:08.884Z,46.89
2019-05-11T08:46:38.627Z,47.69
2019-05-11T08:49:08.651Z,47.20
2019-05-11T08:51:38.677Z,47.63
2019-05-11T08:54:09.028Z,47.36
2019-05-11T08:56:38.301Z,47.01
2019-05-11T08:59:07.990Z,47.74
2019-05-11T09:01:39.345Z,47.66
2019-05-11T09:04:09.116Z,47.94
2019-05-11T09:06:37.837Z,47.34
2019-05-11T09:09:08.934Z,47.03
2019-05-11T09:11:38.957Z,43.88
2019-05-11T09:14:08.377Z,43.89
2019-05-11T09:16:38.272Z,43.31
2019-05-11T09:19:08.776Z,40.91
2019-05-11T09:21:38.264Z,39.13
2019-05-11T09:24:08.476Z,38.21
2019-05-11T09:26:38.667Z,40.76
2019-05-11T09:29:05.810Z,37.05
2019-05-11T09:31:34.179Z,38.75
2019-05-11T09:34:02.653Z,36.41
2019-05-11T09:36:31.123Z,37.03
2019-05-11T09:38:59.517Z,37.88
2019-05-11T09:41:28.948Z,36.39
2019-05-11T09:43:58.650Z,35.83
2019-05-11T09:46:27.925Z,35.50
2019-05-11T09:48:58.902Z,35.45
2019-05-11T09:51:28.790Z,36.71
2019-05-11T09:53:58.757Z,36.71
2019-05-11T09:56:28.784Z,34.77
2019-05-11T09:58:58.140Z,34.53
2019-05-11T10:01:26.833Z,34.22
2019-05-11T10:03:55.326Z,33.87
2019-05-11T10:06:23.983Z,33.95
2019-05-11T10:08:52.423Z,34.62
2019-05-11T10:11:20.861Z,33.58
2019-05-11T10:13:49.293Z,32.96
2019-05-11T10:16:18.086Z,31.79
2019-05-11T10:18:49.141Z,32.02
2019-05-11T10:21:18.765Z,32.72
2019-05-11T10:23:49.051Z,31.72
2019-05-11T10:26:18.643Z,35.96
2019-05-11T10:28:48.137Z,31.81
2019-05-11T10:31:18.131Z,34.28
2019-05-11T10:33:48.928Z,32.55
2019-05-11T10:36:18.813Z,31.61
2019-05-11T10:38:48.694Z,31.74
2019-05-11T10:41:18.151Z,31.69
2019-05-11T10:43:48.993Z,33.18
2019-05-11T10:46:22.796Z,32.38
2019-05-11T10:48:48.296Z,32.07
2019-05-11T10:51:18.438Z,29.72
2019-05-11T10:53:51.637Z,30.74
2019-05-11T10:56:17.872Z,30.63
2019-05-11T10:58:48.203Z,30.93
2019-05-11T11:01:18.180Z,31.69
2019-05-11T11:03:48.367Z,31.33
2019-05-11T11:06:18.609Z,31.71
2019-05-11T11:08:48.672Z,32.64
2019-05-11T11:11:18.463Z,33.95
2019-05-11T11:13:47.981Z,32.49
2019-05-11T11:16:32.727Z,34.01
2019-05-11T11:18:48.665Z,31.63
2019-05-11T11:21:22.395Z,31.35
2019-05-11T11:23:48.074Z,30.46
2019-05-11T11:26:18.351Z,31.44
2019-05-11T11:28:47.728Z,31.37
2019-05-11T11:31:18.738Z,30.22
2019-05-11T11:33:48.987Z,30.95
2019-05-11T11:36:17.959Z,29.99
2019-05-11T11:38:47.837Z,30.55
2019-05-11T11:41:18.668Z,30.86
2019-05-11T11:43:48.355Z,30.42
2019-05-11T11:46:18.532Z,30.17
2019-05-11T11:48:48.572Z,30.97
2019-05-11T11:51:18.538Z,30.28
2019-05-11T11:53:47.758Z,31.08
2019-05-11T11:56:18.914Z,31.87
2019-05-11T11:58:48.532Z,31.67
2019-05-11T12:01:18.672Z,30.48
2019-05-11T12:03:48.872Z,30.77
2019-05-11T12:06:19.997Z,31.09
2019-05-11T12:08:46.252Z,29.76
2019-05-11T12:11:14.639Z,30.77
2019-05-11T12:13:43.088Z,30.73
2019-05-11T12:16:11.509Z,31.46
2019-05-11T12:18:39.955Z,30.60
2019-05-11T12:21:08.378Z,30.32
2019-05-11T12:23:38.114Z,31.80
2019-05-11T12:26:08.456Z,30.73
2019-05-11T12:28:38.235Z,31.24
2019-05-11T12:31:08.708Z,30.69
2019-05-11T12:33:38.544Z,29.62
2019-05-11T12:36:07.974Z,28.74
2019-05-11T12:38:38.225Z,30.21
2019-05-11T12:41:08.726Z,29.70
2019-05-11T12:43:38.198Z,28.90
2019-05-11T12:46:08.029Z,29.77
2019-05-11T12:48:37.945Z,29.51
2019-05-11T12:51:07.957Z,29.91
2019-05-11T12:53:38.524Z,29.65
2019-05-11T12:56:08.255Z,29.52
2019-05-11T12:58:36.867Z,29.95
2019-05-11T13:01:05.328Z,28.40
2019-05-11T13:03:33.747Z,28.73
2019-05-11T13:06:02.257Z,28.93
2019-05-11T13:08:30.806Z,29.88
2019-05-11T13:10:59.251Z,30.02
2019-05-11T13:13:28.541Z,29.51
2019-05-11T13:15:58.583Z,30.52
2019-05-11T13:18:27.918Z,30.80
2019-05-11T13:20:58.620Z,28.49
2019-05-11T13:23:27.845Z,30.27
2019-05-11T13:25:58.348Z,29.38
2019-05-11T13:28:28.448Z,28.69
2019-05-11T13:30:57.932Z,29.92
2019-05-11T13:33:27.831Z,29.12
2019-05-11T13:35:57.874Z,29.11
2019-05-11T13:38:28.110Z,29.28
2019-05-11T13:40:55.578Z,28.81
2019-05-11T13:43:23.950Z,28.42
2019-05-11T13:45:52.388Z,27.86
2019-05-11T13:48:20.813Z,27.99
2019-05-11T13:50:49.293Z,29.04
2019-05-11T13:53:18.371Z,28.81
2019-05-11T13:55:48.105Z,26.84
2019-05-11T13:58:19.653Z,27.12
2019-05-11T14:00:48.092Z,27.67
2019-05-11T14:03:18.422Z,28.68
2019-05-11T14:05:48.143Z,27.95
2019-05-11T14:08:18.559Z,28.28
2019-05-11T14:10:48.813Z,28.42
2019-05-11T14:13:18.162Z,29.11
2019-05-11T14:15:48.139Z,28.53
2019-05-11T14:18:18.093Z,29.36
2019-05-11T14:20:48.270Z,28.63
2019-05-11T14:23:18.292Z,28.31
2019-05-11T14:25:48.674Z,28.24
2019-05-11T14:28:17.994Z,28.59
2019-05-11T14:30:48.604Z,28.70
2019-05-11T14:33:18.027Z,27.50
2019-05-11T14:35:46.162Z,27.99
2019-05-11T14:38:14.595Z,28.00
2019-05-11T14:40:43.014Z,27.80
2019-05-11T14:43:11.693Z,27.28
2019-05-11T14:45:40.131Z,26.24
2019-05-11T14:48:22.135Z,27.31
2019-05-11T14:50:38.823Z,27.71
2019-05-11T14:53:08.671Z,28.55
2019-05-11T14:55:38.148Z,28.84
2019-05-11T14:58:08.304Z,27.68
2019-05-11T15:00:38.978Z,27.53
2019-05-11T15:03:07.870Z,27.69
2019-05-11T15:05:37.598Z,27.08
2019-05-11T15:08:08.705Z,26.83
2019-05-11T15:10:38.293Z,26.09
2019-05-11T15:13:08.072Z,25.89
2019-05-11T15:15:36.574Z,26.58
2019-05-11T15:18:05.066Z,27.03
2019-05-11T15:20:33.496Z,27.75
2019-05-11T15:23:01.947Z,27.14
2019-05-11T15:25:30.427Z,27.36
2019-05-11T15:27:58.952Z,27.70
2019-05-11T15:30:28.749Z,28.73
2019-05-11T15:32:58.447Z,28.11
2019-05-11T15:35:28.477Z,28.57
2019-05-11T15:37:58.236Z,28.46
2019-05-11T15:40:27.928Z,28.99
2019-05-11T15:42:58.547Z,27.29
2019-05-11T15:45:27.727Z,25.95
2019-05-11T15:47:58.717Z,27.12
2019-05-11T15:50:28.844Z,26.54
2019-05-11T15:52:58.201Z,27.37
2019-05-11T15:55:27.799Z,27.82
2019-05-11T15:57:56.680Z,27.89
2019-05-11T16:00:25.252Z,27.89
2019-05-11T16:02:53.696Z,28.17
2019-05-11T16:05:22.113Z,27.40
2019-05-11T16:07:50.808Z,27.56
2019-05-11T16:10:21.784Z,26.67
2019-05-11T16:12:50.236Z,26.57
2019-05-11T16:15:19.746Z,27.00
2019-05-11T16:17:49.170Z,28.11
2019-05-11T16:20:18.434Z,28.68
2019-05-11T16:22:47.963Z,27.15
2019-05-11T16:25:19.272Z,27.59
2019-05-11T16:27:46.446Z,26.84
2019-05-11T16:30:20.926Z,28.16
2019-05-11T16:32:47.856Z,27.62
2019-05-11T16:35:17.950Z,28.17
2019-05-11T16:37:48.378Z,28.16
2019-05-11T16:40:20.137Z,28.16
2019-05-11T16:42:47.857Z,27.89
2019-05-11T16:45:19.032Z,28.62
2019-05-11T16:47:48.285Z,29.79
2019-05-11T16:50:18.233Z,29.08
2019-05-11T16:52:48.320Z,28.87
2019-05-11T16:55:18.288Z,29.34
2019-05-11T16:57:48.369Z,29.82
2019-05-11T17:00:17.863Z,29.89
2019-05-11T17:02:48.973Z,29.31
2019-05-11T17:05:25.826Z,29.30
2019-05-11T17:07:48.286Z,29.40
2019-05-11T17:10:18.146Z,29.99
2019-05-11T17:12:48.413Z,29.66
2019-05-11T17:15:18.699Z,30.00
2019-05-11T17:17:48.707Z,30.10
2019-05-11T17:20:18.729Z,30.16
2019-05-11T17:22:47.923Z,31.00
2019-05-11T17:25:19.107Z,31.09
2019-05-11T17:27:48.776Z,32.25
2019-05-11T17:30:20.085Z,32.79
2019-05-11T17:32:49.522Z,32.59
2019-05-11T17:35:18.378Z,32.86
2019-05-11T17:37:48.469Z,36.24
2019-05-11T17:40:20.740Z,38.74
2019-05-11T17:42:48.218Z,40.38
2019-05-11T17:45:18.918Z,40.91
2019-05-11T17:47:47.235Z,42.76
2019-05-11T17:50:15.731Z,43.36
2019-05-11T17:52:44.192Z,43.89
2019-05-11T17:55:12.767Z,43.46
2019-05-11T17:57:42.001Z,44.14
2019-05-11T18:00:11.539Z,43.99
2019-05-11T18:02:40.333Z,43.62
2019-05-11T18:05:09.317Z,43.59
2019-05-11T18:07:38.523Z,43.97
2019-05-11T18:10:08.196Z,44.34
2019-05-11T18:12:38.995Z,44.88
2019-05-11T18:15:08.544Z,45.06
2019-05-11T18:17:37.172Z,45.65
2019-05-11T18:20:17.379Z,45.30
2019-05-11T18:22:39.333Z,45.85
2019-05-11T18:25:08.949Z,46.14
2019-05-11T18:27:38.736Z,46.66
2019-05-11T18:30:09.343Z,46.81
2019-05-11T18:32:39.597Z,46.63
2019-05-11T18:35:08.856Z,47.04
2019-05-11T18:37:38.948Z,47.51
2019-05-11T18:40:08.203Z,47.54
2019-05-11T18:42:38.316Z,48.13
2019-05-11T18:45:08.316Z,48.77
2019-05-11T18:47:39.302Z,47.82
2019-05-11T18:50:08.383Z,49.33
2019-05-11T18:52:36.810Z,50.22
2019-05-11T18:55:08.445Z,50.79
2019-05-11T18:57:38.391Z,50.91
2019-05-11T19:00:08.169Z,51.51
2019-05-11T19:02:38.502Z,49.40
2019-05-11T19:05:08.247Z,51.44
2019-05-11T19:07:38.758Z,51.84
2019-05-11T19:10:08.486Z,52.78
2019-05-11T19:12:37.642Z,53.44
2019-05-11T19:15:08.596Z,53.22
2019-05-11T19:17:38.594Z,53.18
2019-05-11T19:20:08.426Z,52.15
2019-05-11T19:22:36.578Z,53.94
2019-05-11T19:25:08.775Z,51.12
2019-05-11T19:27:36.549Z,54.19
2019-05-11T19:30:08.496Z,54.51
2019-05-11T19:32:38.301Z,54.92
2019-05-11T19:35:08.835Z,55.32
2019-05-11T19:37:38.626Z,55.35
2019-05-11T19:40:09.188Z,55.69
2019-05-11T19:42:54.185Z,55.22
2019-05-11T19:45:23.242Z,55.88
2019-05-11T19:47:51.690Z,56.45
2019-05-11T19:50:20.153Z,55.93
2019-05-11T19:52:48.527Z,56.20
2019-05-11T19:55:17.868Z,56.39
2019-05-11T19:57:48.274Z,56.43
2019-05-11T20:00:18.429Z,56.41
2019-05-11T20:02:47.391Z,56.41
2019-05-11T20:05:18.163Z,56.12
2019-05-11T20:07:48.278Z,56.29
2019-05-11T20:10:18.569Z,56.47
2019-05-11T20:12:48.354Z,56.10
2019-05-11T20:15:18.892Z,56.43
2019-05-11T20:17:48.718Z,56.84
2019-05-11T20:20:18.489Z,56.34
2019-05-11T20:22:48.353Z,56.58
2019-05-11T20:25:18.409Z,56.44
2019-05-11T20:27:48.319Z,57.18
2019-05-11T20:30:18.292Z,56.87
2019-05-11T20:32:48.337Z,56.98
2019-05-11T20:35:17.206Z,57.25
2019-05-11T20:37:45.636Z,57.66
2019-05-11T20:40:14.387Z,57.75
2019-05-11T20:42:42.829Z,58.08
2019-05-11T20:45:11.568Z,57.91
2019-05-11T20:47:39.982Z,58.13
2019-05-11T20:50:08.574Z,58.49
2019-05-11T20:52:38.970Z,58.28
2019-05-11T20:55:08.834Z,58.38
2019-05-11T20:57:39.304Z,57.97
2019-05-11T21:00:09.183Z,58.85
2019-05-11T21:02:38.222Z,59.18
2019-05-11T21:05:09.806Z,59.13
2019-05-11T21:07:38.795Z,58.94
2019-05-11T21:10:08.843Z,59.36
2019-05-11T21:12:38.616Z,59.38
2019-05-11T21:15:12.084Z,59.60
2019-05-11T21:17:40.476Z,59.50
2019-05-11T21:20:09.652Z,59.79
2019-05-11T21:22:40.625Z,59.90
2019-05-11T21:25:11.104Z,60.05
2019-05-11T21:27:39.553Z,60.04
2019-05-11T21:30:09.898Z,59.76
2019-05-11T21:32:39.574Z,60.02
2019-05-11T21:35:09.018Z,60.53
2019-05-11T21:37:39.055Z,60.56
2019-05-11T21:40:09.036Z,60.34
2019-05-11T21:42:39.084Z,60.92
2019-05-11T21:45:09.846Z,61.07
2019-05-11T21:47:39.484Z,60.67
2019-05-11T21:50:09.415Z,60.34
2019-05-11T21:52:38.693Z,61.21
2019-05-11T21:55:09.311Z,60.96
2019-05-11T21:57:38.664Z,61.20
2019-05-11T22:00:10.197Z,61.29
2019-05-11T22:02:39.237Z,61.60
2019-05-11T22:05:09.671Z,61.62
2019-05-11T22:07:38.773Z,61.98
2019-05-11T22:10:09.168Z,60.18
2019-05-11T22:12:38.693Z,61.91
2019-05-11T22:15:09.593Z,59.68
2019-05-11T22:17:39.647Z,61.81
2019-05-11T22:20:09.425Z,62.37
2019-05-11T22:22:38.865Z,63.00
2019-05-11T22:25:07.964Z,62.72
2019-05-11T22:27:38.911Z,60.53
2019-05-11T22:30:08.723Z,62.29
2019-05-11T22:32:38.372Z,62.76
2019-05-11T22:35:08.188Z,61.12
2019-05-11T22:37:38.629Z,63.29
2019-05-11T22:40:08.502Z,63.40
2019-05-11T22:42:37.299Z,63.99
2019-05-11T22:45:08.487Z,63.73
2019-05-11T22:47:39.296Z,63.41
2019-05-11T22:50:08.670Z,63.66
2019-05-11T22:52:40.408Z,63.56
2019-05-11T22:55:11.704Z,63.80
2019-05-11T22:57:38.990Z,64.24
2019-05-11T23:00:09.874Z,63.74
2019-05-11T23:02:38.512Z,63.85
2019-05-11T23:05:08.436Z,63.58
2019-05-11T23:07:41.154Z,63.50
2019-05-11T23:10:09.489Z,63.53
2019-05-11T23:12:38.511Z,63.40
2019-05-11T23:15:14.559Z,63.38
2019-05-11T23:17:43.053Z,63.54
2019-05-11T23:20:12.311Z,63.78
2019-05-11T23:22:58.069Z,63.67
2019-05-11T23:25:22.539Z,63.85
2019-05-11T23:27:50.963Z,63.93
2019-05-11T23:30:20.384Z,64.30
2019-05-11T23:32:49.776Z,64.13
2019-05-11T23:35:19.001Z,63.84
2019-05-11T23:37:49.515Z,64.25
2019-05-11T23:40:18.400Z,64.05
2019-05-11T23:42:49.083Z,64.10
2019-05-11T23:45:19.402Z,64.47
2019-05-11T23:47:48.868Z,64.63
2019-05-11T23:50:19.386Z,64.90
2019-05-11T23:53:03.960Z,64.72
2019-05-11T23:55:19.455Z,65.05
2019-05-11T23:57:49.129Z,65.10
